Time;durP1;ratioP1;P1;durP2;ratioP2;P2;SDS_P1;SDS_P2;PMS_P1;PMS_P2;Temp;Humidity;BMP_temperature;BMP_pressure;BME280_temperature;BME280_humidity;BME280_pressure;Samples;Min_cycle;Max_cycle;Signal;HPM_P1;HPM_P2
2022/01/08 00:00:26;;;;;;;31.92;20.80;;;1.50;99.90;;;;;;5059662;28;20513;-56
2022/01/08 00:02:52;;;;;;;35.67;20.58;;;1.50;99.90;;;;;;5058819;28;20406;-56
2022/01/08 00:05:18;;;;;;;39.25;21.73;;;1.50;99.90;;;;;;5061460;28;20056;-55
2022/01/08 00:07:44;;;;;;;35.90;22.00;;;1.50;99.90;;;;;;5060359;28;20178;-56
2022/01/08 00:10:10;;;;;;;34.63;20.73;;;1.50;99.90;;;;;;5069167;28;20363;-54
2022/01/08 00:12:35;;;;;;;35.55;21.35;;;1.50;99.90;;;;;;5068180;28;20045;-53
2022/01/08 00:15:01;;;;;;;32.03;21.73;;;1.50;99.90;;;;;;5056889;28;20073;-52
2022/01/08 00:17:27;;;;;;;34.80;20.27;;;1.50;99.90;;;;;;5060849;28;20088;-56
2022/01/08 00:19:52;;;;;;;33.42;20.33;;;1.50;99.90;;;;;;5068939;28;20054;-54
2022/01/08 00:22:18;;;;;;;35.10;21.55;;;1.60;99.90;;;;;;5068520;28;20082;-54
2022/01/08 00:24:44;;;;;;;34.30;21.42;;;1.50;99.90;;;;;;5067879;28;20486;-55
2022/01/08 00:27:09;;;;;;;31.02;20.52;;;1.50;99.90;;;;;;5067243;28;20040;-55
2022/01/08 00:29:35;;;;;;;34.67;21.67;;;1.50;99.90;;;;;;5069385;28;20098;-55
2022/01/08 00:32:01;;;;;;;30.17;19.83;;;1.40;99.90;;;;;;5072490;28;20491;-53
2022/01/08 00:34:26;;;;;;;31.40;21.50;;;1.40;99.90;;;;;;5072065;28;20299;-55
2022/01/08 00:36:52;;;;;;;33.35;20.90;;;1.30;99.90;;;;;;5071473;28;20402;-53
2022/01/08 00:39:17;;;;;;;35.78;21.45;;;1.40;99.90;;;;;;5065693;28;20048;-55
2022/01/08 00:41:43;;;;;;;34.70;21.70;;;1.30;99.90;;;;;;5059938;28;20355;-54
2022/01/08 00:44:08;;;;;;;33.13;21.20;;;1.40;99.90;;;;;;5054579;28;20051;-54
2022/01/08 00:46:34;;;;;;;36.47;21.35;;;1.40;99.90;;;;;;5053724;28;20048;-54
2022/01/08 00:49:01;;;;;;;34.13;21.42;;;1.40;99.90;;;;;;5060041;28;20057;-54
2022/01/08 00:51:27;;;;;;;33.25;22.02;;;1.40;99.90;;;;;;5067114;28;20044;-55
2022/01/08 00:53:52;;;;;;;38.47;23.10;;;1.50;99.90;;;;;;5059609;28;20052;-54
2022/01/08 00:56:18;;;;;;;35.88;23.77;;;1.50;99.90;;;;;;5052741;28;20041;-55
2022/01/08 00:58:43;;;;;;;35.58;22.25;;;1.50;99.90;;;;;;5069870;28;20036;-53
2022/01/08 01:01:09;;;;;;;37.53;22.38;;;1.60;99.90;;;;;;5058773;28;20045;-52
2022/01/08 01:03:35;;;;;;;33.42;21.75;;;1.60;99.90;;;;;;5070918;28;20037;-56
2022/01/08 01:06:00;;;;;;;33.10;21.58;;;1.60;99.90;;;;;;5069291;28;20144;-53
2022/01/08 01:08:26;;;;;;;36.95;21.17;;;1.60;99.90;;;;;;5069978;28;20052;-54
2022/01/08 01:10:51;;;;;;;35.65;20.80;;;1.60;99.90;;;;;;5062136;28;20040;-53
2022/01/08 01:13:18;;;;;;;34.03;20.65;;;1.70;99.90;;;;;;5071107;28;20056;-53
2022/01/08 01:15:43;;;;;;;30.05;19.15;;;1.70;99.90;;;;;;5065978;28;20053;-56
2022/01/08 01:18:09;;;;;;;32.92;20.83;;;1.60;99.90;;;;;;5069526;28;20186;-54
2022/01/08 01:20:35;;;;;;;32.97;20.25;;;1.60;99.90;;;;;;5059690;28;20047;-54
2022/01/08 01:23:08;;;;;;;26.65;19.05;;;1.60;99.90;;;;;;5059624;28;20050;-56
2022/01/08 01:25:46;;;;;;;29.23;19.25;;;1.60;99.90;;;;;;5060855;28;20068;-54
2022/01/08 01:47:11;;;;;;;29.10;21.13;;;1.10;99.90;;;;;;5065691;28;20469;-53
2022/01/08 01:49:39;;;;;;;29.13;19.85;;;1.00;99.90;;;;;;5062042;28;20123;-54
2022/01/08 01:52:08;;;;;;;30.38;20.67;;;1.00;99.90;;;;;;5070906;28;20442;-54
2022/01/08 01:54:34;;;;;;;33.17;20.73;;;0.90;99.90;;;;;;5061771;28;20045;-54
2022/01/08 01:57:02;;;;;;;31.90;21.42;;;0.90;99.90;;;;;;5061600;28;20037;-54
2022/01/08 01:59:29;;;;;;;35.83;22.33;;;0.80;99.90;;;;;;5060525;28;20044;-54
2022/01/08 02:01:55;;;;;;;32.75;21.08;;;0.80;99.90;;;;;;5058623;28;20056;-53
2022/01/08 02:04:21;;;;;;;40.33;22.73;;;0.80;99.90;;;;;;5059695;28;20041;-53
2022/01/08 02:06:47;;;;;;;39.75;22.63;;;0.90;99.90;;;;;;5067034;28;20037;-52
2022/01/08 02:09:13;;;;;;;34.97;21.40;;;0.80;99.90;;;;;;5065003;28;20781;-54
2022/01/08 02:11:59;;;;;;;33.25;20.30;;;0.80;99.90;;;;;;5070233;28;20120;-54
2022/01/08 02:14:26;;;;;;;32.63;19.33;;;0.80;99.90;;;;;;5064258;28;20061;-54
2022/01/08 02:16:52;;;;;;;32.23;19.57;;;0.80;99.90;;;;;;5062485;28;20097;-55
2022/01/08 02:19:18;;;;;;;34.20;20.35;;;0.70;99.90;;;;;;5069935;28;20060;-55
2022/01/08 02:21:56;;;;;;;33.35;19.63;;;0.70;99.90;;;;;;5063560;28;20064;-54
2022/01/08 02:24:22;;;;;;;35.88;18.90;;;0.70;99.90;;;;;;5067232;28;20547;-54
2022/01/08 02:26:48;;;;;;;28.13;19.15;;;0.70;99.90;;;;;;5069297;28;20095;-53
2022/01/08 02:29:16;;;;;;;30.73;19.00;;;0.70;99.90;;;;;;5069867;28;20040;-53
2022/01/08 02:31:55;;;;;;;29.13;17.95;;;0.60;99.90;;;;;;5072293;28;20379;-54
2022/01/08 02:34:21;;;;;;;28.55;17.05;;;0.60;99.90;;;;;;5062763;28;20044;-54
2022/01/08 02:36:46;;;;;;;30.65;17.38;;;0.60;99.90;;;;;;5070380;28;20068;-54
2022/01/08 02:39:12;;;;;;;31.48;17.60;;;0.60;99.90;;;;;;5059929;28;20044;-52
2022/01/08 02:41:39;;;;;;;33.65;17.52;;;0.60;99.90;;;;;;5062122;28;20045;-54
2022/01/08 02:44:09;;;;;;;30.58;17.90;;;0.60;99.90;;;;;;5059429;28;20587;-53
2022/01/08 02:46:38;;;;;;;28.80;15.73;;;0.50;99.90;;;;;;5070951;28;20093;-53
2022/01/08 02:49:05;;;;;;;30.40;17.25;;;0.50;99.90;;;;;;5058257;28;20049;-53
2022/01/08 02:51:33;;;;;;;29.48;17.25;;;0.50;99.90;;;;;;5060166;28;20028;-54
2022/01/08 02:53:59;;;;;;;30.23;17.80;;;0.40;99.90;;;;;;5067225;28;20054;-49
2022/01/08 02:56:24;;;;;;;30.02;17.42;;;0.40;99.90;;;;;;5065712;28;20040;-54
2022/01/08 02:58:50;;;;;;;32.80;17.55;;;0.40;99.90;;;;;;5059538;28;20045;-55
2022/01/08 03:01:15;;;;;;;32.10;17.02;;;0.40;99.90;;;;;;5062603;28;20541;-54
2022/01/08 03:03:41;;;;;;;29.73;17.10;;;0.40;99.90;;;;;;5066909;28;20482;-51
2022/01/08 03:06:07;;;;;;;32.20;18.05;;;0.50;99.90;;;;;;5060818;28;20512;-53
2022/01/08 03:08:32;;;;;;;32.55;17.15;;;0.50;99.90;;;;;;5061125;28;20037;-52
2022/01/08 03:10:58;;;;;;;38.85;17.83;;;0.50;99.90;;;;;;5072875;28;20052;-54
2022/01/08 03:13:23;;;;;;;27.48;16.33;;;0.50;99.90;;;;;;5073604;28;20159;-54
2022/01/08 03:15:49;;;;;;;29.75;17.20;;;0.50;99.90;;;;;;5071122;28;20053;-53
2022/01/08 03:18:16;;;;;;;29.80;16.73;;;0.50;99.90;;;;;;5071512;28;20056;-54
2022/01/08 03:21:00;;;;;;;28.77;16.53;;;0.50;99.90;;;;;;5070310;28;20044;-50
2022/01/08 03:23:35;;;;;;;28.67;16.20;;;0.50;99.90;;;;;;5069473;28;20465;-54
2022/01/08 03:26:00;;;;;;;28.63;16.48;;;0.50;99.90;;;;;;5059359;28;20047;-54
2022/01/08 03:28:26;;;;;;;35.08;17.65;;;0.40;99.90;;;;;;5069253;28;20037;-53
2022/01/08 03:30:51;;;;;;;31.92;17.42;;;0.40;99.90;;;;;;5071159;28;20052;-52
2022/01/08 03:33:17;;;;;;;28.45;16.73;;;0.40;99.90;;;;;;5061569;28;20037;-53
2022/01/08 03:35:42;;;;;;;28.75;16.92;;;0.30;99.90;;;;;;5069014;28;20062;-54
2022/01/08 03:38:08;;;;;;;26.83;16.73;;;0.30;99.90;;;;;;5069969;28;20398;-55
2022/01/08 03:40:34;;;;;;;27.40;17.40;;;0.30;99.90;;;;;;5062902;28;20512;-52
2022/01/08 03:42:59;;;;;;;33.65;17.30;;;0.30;99.90;;;;;;5060431;28;20454;-53
2022/01/08 03:45:25;;;;;;;28.30;17.23;;;0.30;99.90;;;;;;5066173;28;20037;-53
2022/01/08 03:50:16;;;;;;;28.13;17.35;;;0.30;99.90;;;;;;5063399;28;20087;-54
2022/01/08 03:52:42;;;;;;;29.92;17.40;;;0.40;99.90;;;;;;5062974;28;20157;-53
2022/01/08 03:55:08;;;;;;;38.75;18.92;;;0.30;99.90;;;;;;5064833;28;20041;-56
2022/01/08 03:57:33;;;;;;;34.00;19.00;;;0.30;99.90;;;;;;5067324;28;20094;-53
2022/01/08 03:59:59;;;;;;;36.90;19.67;;;0.40;99.90;;;;;;5063742;28;20036;-52
2022/01/08 04:02:24;;;;;;;37.20;20.83;;;0.40;99.90;;;;;;5066146;28;20040;-54
2022/01/08 04:04:50;;;;;;;37.20;20.65;;;0.50;99.90;;;;;;5068853;28;20110;-54
2022/01/08 04:07:16;;;;;;;40.42;21.60;;;0.50;99.90;;;;;;5072383;28;20048;-55
2022/01/08 04:09:41;;;;;;;37.58;21.10;;;0.60;99.90;;;;;;5070437;28;20083;-54
2022/01/08 04:12:08;;;;;;;41.35;20.30;;;0.60;99.90;;;;;;5071548;28;20039;-55
2022/01/08 04:14:49;;;;;;;39.78;21.17;;;0.60;99.90;;;;;;5069939;28;20091;-53
2022/01/08 04:17:16;;;;;;;41.17;21.35;;;0.70;99.90;;;;;;5070137;28;20046;-50
2022/01/08 04:19:42;;;;;;;36.10;19.93;;;0.70;99.90;;;;;;5065467;28;20124;-52
2022/01/08 04:22:12;;;;;;;36.50;19.55;;;0.70;99.90;;;;;;5064256;28;20090;-54
2022/01/08 04:24:40;;;;;;;32.35;19.10;;;0.70;99.90;;;;;;5071895;28;20036;-55
2022/01/08 04:27:06;;;;;;;36.78;19.73;;;0.60;99.90;;;;;;5060605;28;20080;-53
2022/01/08 04:29:32;;;;;;;30.83;18.77;;;0.60;99.90;;;;;;5066189;28;20087;-52
2022/01/08 04:31:57;;;;;;;33.03;18.30;;;0.60;99.90;;;;;;5067771;28;20520;-55
2022/01/08 04:34:23;;;;;;;31.08;17.73;;;0.60;99.90;;;;;;5067013;28;20040;-54
2022/01/08 04:36:48;;;;;;;28.40;18.00;;;0.50;99.90;;;;;;5062736;28;20371;-54
2022/01/08 04:39:14;;;;;;;34.70;18.35;;;0.50;99.90;;;;;;5070671;28;20028;-53
2022/01/08 04:41:41;;;;;;;29.02;17.40;;;0.50;99.90;;;;;;5067033;28;20456;-54
2022/01/08 04:44:07;;;;;;;31.67;17.83;;;0.50;99.90;;;;;;5054205;28;20060;-54
2022/01/08 04:46:33;;;;;;;28.80;17.58;;;0.50;99.90;;;;;;5062075;28;20067;-55
2022/01/08 04:48:59;;;;;;;28.83;17.13;;;0.50;99.90;;;;;;5061657;28;20041;-49
2022/01/08 04:51:24;;;;;;;27.35;16.40;;;0.40;99.90;;;;;;5061378;28;20076;-52
2022/01/08 04:53:50;;;;;;;30.13;16.20;;;0.40;99.90;;;;;;5070545;28;20040;-54
2022/01/08 04:56:16;;;;;;;30.63;16.73;;;0.40;99.90;;;;;;5069427;28;20032;-52
2022/01/08 04:58:41;;;;;;;30.35;15.95;;;0.40;99.90;;;;;;5061776;28;20402;-54
2022/01/08 05:01:16;;;;;;;28.25;16.10;;;0.40;99.90;;;;;;5066178;28;20071;-55
2022/01/08 05:03:42;;;;;;;27.95;16.15;;;0.30;99.90;;;;;;5065464;28;20036;-51
2022/01/08 05:06:07;;;;;;;29.40;15.88;;;0.30;99.90;;;;;;5069895;28;20063;-53
2022/01/08 05:08:33;;;;;;;28.88;15.48;;;0.30;99.90;;;;;;5068345;28;20047;-54
2022/01/08 05:10:58;;;;;;;27.73;14.77;;;0.20;99.90;;;;;;5055337;28;20036;-53
2022/01/08 05:13:24;;;;;;;27.95;15.05;;;0.20;99.90;;;;;;5061525;28;20060;-53
2022/01/08 05:15:50;;;;;;;27.10;14.90;;;0.20;99.90;;;;;;5056747;28;20067;-54
2022/01/08 05:18:15;;;;;;;30.30;14.65;;;0.30;99.90;;;;;;5056977;28;20053;-53
2022/01/08 05:20:45;;;;;;;25.45;14.02;;;0.30;99.90;;;;;;5054625;28;20335;-54
2022/01/08 05:23:11;;;;;;;23.02;13.10;;;0.20;99.90;;;;;;5069043;28;20056;-52
2022/01/08 05:25:37;;;;;;;26.45;13.05;;;0.30;99.90;;;;;;5066838;28;20368;-53
2022/01/08 05:28:03;;;;;;;22.95;13.20;;;0.20;99.90;;;;;;5068173;28;20387;-53
2022/01/08 05:30:29;;;;;;;27.52;13.52;;;0.20;99.90;;;;;;5072075;28;20079;-55
2022/01/08 05:32:55;;;;;;;23.55;14.10;;;0.20;99.90;;;;;;5055671;28;20045;-54
2022/01/08 05:35:23;;;;;;;27.50;14.20;;;0.20;99.90;;;;;;5063204;28;20426;-54
2022/01/08 05:37:48;;;;;;;24.83;14.52;;;0.20;99.90;;;;;;5052431;28;20045;-54
2022/01/08 05:40:14;;;;;;;24.77;14.05;;;0.20;99.90;;;;;;5053868;28;20384;-56
2022/01/08 05:42:40;;;;;;;22.27;14.32;;;0.20;99.90;;;;;;5068626;28;20119;-54
2022/01/08 05:45:06;;;;;;;27.40;15.25;;;0.20;99.90;;;;;;5072054;28;20415;-55
2022/01/08 05:47:33;;;;;;;23.05;14.55;;;0.20;99.90;;;;;;5063911;28;20045;-53
2022/01/08 05:49:59;;;;;;;22.97;14.27;;;0.20;99.90;;;;;;5069340;28;20446;-53
2022/01/08 05:52:25;;;;;;;29.55;14.82;;;0.20;99.90;;;;;;5061232;28;20298;-55
2022/01/08 05:54:50;;;;;;;30.85;15.38;;;0.20;99.90;;;;;;5066695;28;20447;-54
2022/01/08 05:57:16;;;;;;;29.48;15.82;;;0.20;99.90;;;;;;5061080;28;20097;-53
2022/01/08 05:59:42;;;;;;;25.90;15.05;;;0.20;99.90;;;;;;5063237;28;20502;-52
2022/01/08 06:02:11;;;;;;;29.52;16.63;;;0.10;99.90;;;;;;5067220;28;20398;-53
2022/01/08 06:04:37;;;;;;;29.90;16.88;;;0.10;99.90;;;;;;5065695;28;20533;-53
2022/01/08 06:07:04;;;;;;;25.95;16.13;;;0.10;99.90;;;;;;5063684;28;20494;-53
2022/01/08 06:09:29;;;;;;;29.80;16.08;;;0.10;99.90;;;;;;5067118;28;20110;-56
2022/01/08 06:11:55;;;;;;;32.38;17.02;;;0.10;99.90;;;;;;5075610;28;20430;-54
2022/01/08 06:14:21;;;;;;;26.88;15.52;;;0.10;99.90;;;;;;5056333;28;20499;-54
2022/01/08 06:16:48;;;;;;;30.13;17.38;;;0.00;99.90;;;;;;5067583;28;20056;-55
2022/01/08 06:19:15;;;;;;;31.25;17.40;;;0.00;99.90;;;;;;5068248;28;20040;-52
2022/01/08 06:21:40;;;;;;;31.50;16.08;;;0.00;99.90;;;;;;5068444;28;20037;-53
2022/01/08 06:24:06;;;;;;;33.45;15.75;;;0.00;99.90;;;;;;5067842;28;20067;-54
2022/01/08 06:26:33;;;;;;;33.40;17.20;;;0.00;99.90;;;;;;5072394;28;20047;-51
2022/01/08 06:28:58;;;;;;;30.73;16.58;;;0.00;99.90;;;;;;5057877;28;20037;-54
2022/01/08 06:31:24;;;;;;;31.75;16.50;;;0.10;99.90;;;;;;5069322;28;20060;-54
2022/01/08 06:33:51;;;;;;;27.98;15.30;;;0.00;99.90;;;;;;5065561;28;20052;-54
2022/01/08 06:36:18;;;;;;;27.80;16.55;;;0.00;99.90;;;;;;5071604;28;20029;-54
2022/01/08 06:38:45;;;;;;;35.55;17.50;;;0.00;99.90;;;;;;5071392;28;20040;-54
2022/01/08 06:41:10;;;;;;;30.65;16.35;;;0.00;99.90;;;;;;5072260;28;20421;-54
2022/01/08 06:43:36;;;;;;;25.00;16.15;;;-0.10;99.90;;;;;;5060211;28;20560;-52
2022/01/08 06:46:02;;;;;;;28.05;16.13;;;-0.10;99.90;;;;;;5063867;28;20043;-54
2022/01/08 06:48:27;;;;;;;31.20;16.38;;;-0.10;99.90;;;;;;5067710;28;20327;-53
2022/01/08 06:50:53;;;;;;;29.45;16.00;;;-0.10;99.90;;;;;;5060853;28;20114;-54
2022/01/08 06:53:18;;;;;;;31.75;16.45;;;-0.10;99.90;;;;;;5060772;28;20529;-54
2022/01/08 06:55:44;;;;;;;24.30;15.38;;;-0.10;99.90;;;;;;5067805;28;20048;-52
2022/01/08 06:58:10;;;;;;;30.23;15.65;;;-0.10;99.90;;;;;;5070245;28;20043;-55
2022/01/08 07:00:35;;;;;;;33.53;16.55;;;-0.10;99.90;;;;;;5056612;28;20098;-54
2022/01/08 07:03:02;;;;;;;29.40;15.60;;;-0.10;99.90;;;;;;5065812;28;20417;-53
2022/01/08 07:05:27;;;;;;;30.65;17.00;;;-0.10;99.90;;;;;;5062600;28;20040;-53
2022/01/08 07:07:53;;;;;;;29.10;16.65;;;-0.10;99.90;;;;;;5068528;28;20045;-54
2022/01/08 07:10:18;;;;;;;31.58;16.90;;;0.00;99.90;;;;;;5072057;28;20156;-51
2022/01/08 07:12:44;;;;;;;28.60;15.68;;;0.00;99.90;;;;;;5070354;28;20079;-51
2022/01/08 07:15:10;;;;;;;32.05;16.45;;;0.00;99.90;;;;;;5072793;28;20174;-54
2022/01/08 07:17:35;;;;;;;34.47;17.30;;;0.00;99.90;;;;;;5072246;28;20049;-53
2022/01/08 07:20:01;;;;;;;33.50;17.70;;;0.00;99.90;;;;;;5065329;28;20040;-55
2022/01/08 07:22:29;;;;;;;34.45;17.65;;;0.00;99.90;;;;;;5066470;28;20039;-50
2022/01/08 07:24:54;;;;;;;30.90;17.63;;;-0.10;99.90;;;;;;5072873;28;20052;-54
2022/01/08 07:27:20;;;;;;;29.48;17.52;;;-0.10;99.90;;;;;;5069205;28;20037;-55
2022/01/08 07:29:45;;;;;;;35.42;18.73;;;-0.10;99.90;;;;;;5055117;28;20045;-52
2022/01/08 07:32:11;;;;;;;31.45;17.75;;;0.00;99.90;;;;;;5063619;28;20475;-55
2022/01/08 07:34:37;;;;;;;28.42;17.63;;;0.00;99.90;;;;;;5069617;28;20090;-56
2022/01/08 07:37:02;;;;;;;28.60;17.90;;;0.00;99.90;;;;;;5066212;28;20040;-52
2022/01/08 07:39:28;;;;;;;31.60;18.30;;;0.00;99.90;;;;;;5064250;28;20413;-53
2022/01/08 07:41:53;;;;;;;29.83;18.02;;;0.00;99.90;;;;;;5067042;28;20052;-52
2022/01/08 07:44:19;;;;;;;31.35;18.45;;;0.00;99.90;;;;;;5057384;28;20032;-51
2022/01/08 07:46:45;;;;;;;27.17;16.98;;;0.00;99.90;;;;;;5068110;28;20118;-54
2022/01/08 07:49:10;;;;;;;31.73;17.83;;;0.00;99.90;;;;;;5064393;28;20042;-55
2022/01/08 07:51:36;;;;;;;33.42;18.58;;;0.00;99.90;;;;;;5066981;28;20049;-54
2022/01/08 07:54:02;;;;;;;33.35;19.23;;;0.00;99.90;;;;;;5061829;28;20228;-54
2022/01/08 07:56:27;;;;;;;31.75;18.30;;;0.10;99.90;;;;;;5063524;28;20120;-53
2022/01/08 07:58:53;;;;;;;33.05;18.35;;;0.00;99.90;;;;;;5061669;28;20093;-54
2022/01/08 08:01:18;;;;;;;32.63;18.10;;;0.10;99.90;;;;;;5060654;28;20052;-54
2022/01/08 08:03:44;;;;;;;28.63;19.08;;;0.10;99.90;;;;;;5061857;28;20135;-56
2022/01/08 08:06:10;;;;;;;31.67;18.83;;;0.10;99.90;;;;;;5069767;28;20510;-55
2022/01/08 08:08:36;;;;;;;26.67;17.77;;;0.10;99.90;;;;;;5060622;28;20056;-56
2022/01/08 08:11:02;;;;;;;30.63;18.83;;;0.10;99.90;;;;;;5060849;28;20041;-54
2022/01/08 08:13:27;;;;;;;38.53;19.13;;;0.10;99.90;;;;;;5069189;28;20130;-54
2022/01/08 08:15:53;;;;;;;27.50;18.15;;;0.10;99.90;;;;;;5064520;28;20283;-54
2022/01/08 08:18:19;;;;;;;34.97;20.75;;;0.10;99.90;;;;;;5067975;28;20211;-51
2022/01/08 08:20:44;;;;;;;35.05;19.98;;;0.20;99.90;;;;;;5063420;28;20513;-53
2022/01/08 08:23:10;;;;;;;31.63;20.05;;;0.20;99.90;;;;;;5072344;28;20496;-50
2022/01/08 08:25:36;;;;;;;31.52;21.35;;;0.10;99.90;;;;;;5071628;28;20108;-53
2022/01/08 08:28:06;;;;;;;35.22;21.95;;;0.20;99.90;;;;;;5072235;28;20079;-53
2022/01/08 08:30:33;;;;;;;31.40;21.05;;;0.20;99.90;;;;;;5058547;28;20033;-52
2022/01/08 08:33:00;;;;;;;36.03;21.52;;;0.20;99.90;;;;;;5068837;28;20049;-49
2022/01/08 08:35:25;;;;;;;30.15;20.58;;;0.30;99.90;;;;;;5059659;28;20491;-53
2022/01/08 08:37:51;;;;;;;33.53;21.85;;;0.20;99.90;;;;;;5066021;28;20044;-54
2022/01/08 08:40:17;;;;;;;32.30;22.10;;;0.30;99.90;;;;;;5056396;28;20044;-50
2022/01/08 08:42:43;;;;;;;40.08;24.27;;;0.30;99.90;;;;;;5068920;28;20052;-54
2022/01/08 08:45:09;;;;;;;37.78;23.20;;;0.30;99.90;;;;;;5071726;28;20064;-54
2022/01/08 08:47:35;;;;;;;36.05;23.77;;;0.30;99.90;;;;;;5070894;28;20546;-54
2022/01/08 08:50:03;;;;;;;42.78;26.08;;;0.40;99.90;;;;;;5066287;28;20119;-55
2022/01/08 08:52:28;;;;;;;38.88;23.45;;;0.40;99.90;;;;;;5064158;28;20037;-50
2022/01/08 08:54:54;;;;;;;39.53;24.27;;;0.40;99.90;;;;;;5068531;28;20055;-53
2022/01/08 08:57:20;;;;;;;35.08;24.48;;;0.50;99.90;;;;;;5064517;28;20060;-53
2022/01/08 08:59:45;;;;;;;40.90;24.40;;;0.50;99.90;;;;;;5072544;28;20041;-54
2022/01/08 09:02:11;;;;;;;39.15;23.60;;;0.60;99.90;;;;;;5072707;28;20378;-53
2022/01/08 09:04:38;;;;;;;36.67;24.23;;;0.60;99.90;;;;;;5070150;28;20048;-54
2022/01/08 09:07:04;;;;;;;40.78;23.80;;;0.70;99.90;;;;;;5072379;28;20359;-52
2022/01/08 09:09:30;;;;;;;34.30;22.20;;;0.70;99.90;;;;;;5069413;28;20175;-52
2022/01/08 09:11:56;;;;;;;28.88;20.52;;;0.70;99.90;;;;;;5063831;28;20098;-54
2022/01/08 09:14:21;;;;;;;32.92;21.90;;;0.80;99.90;;;;;;5065011;28;20057;-54
2022/01/08 09:16:54;;;;;;;36.20;21.45;;;0.80;99.90;;;;;;5052340;28;20396;-54
2022/01/08 09:19:21;;;;;;;36.55;21.70;;;0.80;99.90;;;;;;5061447;28;20435;-54
2022/01/08 09:21:47;;;;;;;34.08;22.30;;;0.90;99.90;;;;;;5070800;28;20052;-53
2022/01/08 09:24:14;;;;;;;32.63;20.70;;;1.00;99.90;;;;;;5072343;28;20033;-54
2022/01/08 09:26:40;;;;;;;32.05;20.48;;;1.00;99.90;;;;;;5065197;28;20090;-54
2022/01/08 09:29:05;;;;;;;31.83;21.58;;;1.10;99.90;;;;;;5058459;28;20410;-53
2022/01/08 09:31:32;;;;;;;29.10;21.10;;;1.10;99.90;;;;;;5063211;28;20102;-54
2022/01/08 09:33:58;;;;;;;29.25;20.27;;;1.20;99.90;;;;;;5062551;28;20041;-54
2022/01/08 09:36:24;;;;;;;27.30;19.70;;;1.20;99.90;;;;;;5056768;28;20418;-55
2022/01/08 09:38:49;;;;;;;30.55;19.83;;;1.20;99.90;;;;;;5058412;28;20144;-55
2022/01/08 09:41:16;;;;;;;30.27;19.63;;;1.30;99.90;;;;;;5067851;28;20135;-54
2022/01/08 09:43:41;;;;;;;26.92;17.63;;;1.30;99.90;;;;;;5059833;28;20422;-53
2022/01/08 09:46:07;;;;;;;32.75;19.58;;;1.30;99.90;;;;;;5056900;28;20041;-54
2022/01/08 09:48:32;;;;;;;26.67;18.38;;;1.40;99.90;;;;;;5058517;28;20047;-54
2022/01/08 09:50:58;;;;;;;23.73;18.35;;;1.40;99.90;;;;;;5065375;28;20086;-54
2022/01/08 09:53:24;;;;;;;30.63;18.77;;;1.40;99.90;;;;;;5070663;28;20044;-53
2022/01/08 09:55:49;;;;;;;25.90;18.10;;;1.40;99.90;;;;;;5059011;28;20037;-52
2022/01/08 09:58:15;;;;;;;28.45;18.38;;;1.40;99.90;;;;;;5071413;28;20516;-51
2022/01/08 10:00:41;;;;;;;27.35;18.10;;;1.40;99.90;;;;;;5055965;28;20499;-53
2022/01/08 10:03:14;;;;;;;24.60;17.15;;;1.40;99.90;;;;;;5058002;28;20047;-54
2022/01/08 10:05:48;;;;;;;31.08;18.27;;;1.40;99.90;;;;;;5058303;28;20043;-54
2022/01/08 10:08:15;;;;;;;27.88;18.38;;;1.50;99.90;;;;;;5072223;28;20086;-54
2022/01/08 10:10:54;;;;;;;26.23;17.45;;;1.70;99.90;;;;;;5070533;28;20397;-52
2022/01/08 10:13:23;;;;;;;28.95;18.95;;;;;;;;;;5070240;28;20060;-51
2022/01/08 10:18:36;;;;;;;27.23;18.08;;;1.90;99.90;;;;;;5058698;28;20128;-52
2022/01/08 10:21:14;;;;;;;26.10;17.33;;;2.00;99.90;;;;;;5053040;28;20407;-52
2022/01/08 10:23:43;;;;;;;26.25;17.45;;;2.10;99.90;;;;;;5052127;28;20040;-52
2022/01/08 10:26:13;;;;;;;26.20;17.73;;;2.20;99.90;;;;;;5057878;28;20045;-49
2022/01/08 10:28:49;;;;;;;19.42;14.27;;;2.50;99.90;;;;;;5066956;28;20068;-53
2022/01/08 10:31:32;;;;;;;21.20;16.00;;;2.30;99.90;;;;;;5061902;28;20037;-52
2022/01/08 10:34:01;;;;;;;25.73;16.08;;;2.40;99.90;;;;;;5070133;28;20047;-52
2022/01/08 10:36:35;;;;;;;18.88;14.50;;;2.50;99.90;;;;;;5058548;28;20052;-53
2022/01/08 10:39:05;;;;;;;21.45;14.50;;;2.50;99.90;;;;;;5070920;28;20028;-51
2022/01/08 10:41:30;;;;;;;22.38;14.52;;;2.60;99.90;;;;;;5062772;28;20044;-51
2022/01/08 10:44:25;;;;;;;26.58;16.55;;;2.70;99.90;;;;;;5076453;28;20048;-53
2022/01/08 10:47:01;;;;;;;24.38;15.15;;;2.80;99.90;;;;;;5090143;28;20040;-51
2022/01/08 10:49:34;;;;;;;20.40;14.75;;;2.80;99.90;;;;;;5068124;28;20075;-53
2022/01/08 10:52:11;;;;;;;24.95;17.00;;;2.90;99.90;;;;;;5055985;28;20487;-53
2022/01/08 10:54:40;;;;;;;25.08;15.50;;;3.00;99.90;;;;;;5061560;28;20124;-51
2022/01/08 10:57:08;;;;;;;23.40;14.23;;;3.00;99.90;;;;;;5071331;28;20045;-53
2022/01/08 10:59:36;;;;;;;22.65;13.88;;;3.00;99.90;;;;;;5075168;28;20044;-51
2022/01/08 11:02:12;;;;;;;;;;;3.00;99.90;;;;;;5066844;28;20033;-53
2022/01/08 11:04:53;;;;;;;19.73;13.98;;;3.10;99.90;;;;;;5075763;28;20014;-54
2022/01/08 11:07:22;;;;;;;20.15;14.82;;;3.20;99.90;;;;;;5068530;28;20101;-54
2022/01/08 11:09:52;;;;;;;22.05;15.02;;;3.30;99.90;;;;;;5073820;28;20095;-52
2022/01/08 11:12:24;;;;;;;24.95;15.90;;;3.20;99.90;;;;;;5070232;28;20037;-52
2022/01/08 11:17:27;;;;;;;23.40;16.10;;;3.40;99.90;;;;;;5064338;28;20470;-51
2022/01/08 11:19:56;;;;;;;17.55;14.20;;;3.40;99.90;;;;;;5068837;28;20809;-51
2022/01/08 11:22:25;;;;;;;23.08;16.05;;;3.30;99.90;;;;;;5059211;28;20456;-53
2022/01/08 11:24:52;;;;;;;22.60;16.38;;;3.40;99.90;;;;;;5074848;28;20048;-54
2022/01/08 11:27:22;;;;;;;23.08;16.70;;;3.40;99.90;;;;;;5074743;28;21197;-54
2022/01/08 11:30:02;;;;;;;22.75;16.48;;;3.40;99.90;;;;;;5056444;28;20044;-50
2022/01/08 11:32:28;;;;;;;25.92;16.95;;;3.40;99.90;;;;;;5070621;28;20072;-54
2022/01/08 11:34:54;;;;;;;21.25;16.80;;;3.40;99.90;;;;;;5073826;28;20048;-51
2022/01/08 11:37:24;;;;;;;22.63;17.00;;;3.30;99.90;;;;;;5059621;28;20032;-53
2022/01/08 11:39:51;;;;;;;26.45;17.65;;;3.30;99.90;;;;;;5072345;28;20044;-51
2022/01/08 11:42:20;;;;;;;23.02;19.08;;;3.30;99.90;;;;;;5067365;28;20560;-51
2022/01/08 11:44:48;;;;;;;27.55;17.50;;;3.40;99.90;;;;;;5056522;28;20057;-54
2022/01/08 11:47:16;;;;;;;25.80;18.42;;;3.30;99.90;;;;;;5063624;28;20149;-54
2022/01/08 11:49:42;;;;;;;22.73;17.52;;;3.40;99.90;;;;;;5060761;28;20075;-52
2022/01/08 11:52:19;;;;;;;23.92;19.15;;;3.40;99.90;;;;;;5073627;28;20037;-51
2022/01/08 11:54:47;;;;;;;23.60;17.70;;;3.40;99.90;;;;;;5069081;28;20044;-54
2022/01/08 11:57:18;;;;;;;22.33;18.58;;;3.50;99.90;;;;;;5079375;28;20499;-54
2022/01/08 11:59:45;;;;;;;22.25;18.90;;;3.50;99.90;;;;;;5067495;28;20518;-52
2022/01/08 12:02:12;;;;;;;37.10;19.45;;;3.50;99.90;;;;;;5067354;28;20045;-52
2022/01/08 12:04:41;;;;;;;20.85;18.25;;;3.50;99.90;;;;;;5063065;28;20098;-54
2022/01/08 12:07:24;;;;;;;;;;;3.50;99.90;;;;;;5064445;28;20223;-53
2022/01/08 12:10:23;;;;;;;25.38;18.38;;;3.50;99.90;;;;;;5055110;28;19928;-54
2022/01/08 12:13:01;;;;;;;22.73;19.42;;;3.50;99.90;;;;;;5070768;28;20053;-52
2022/01/08 12:15:42;;;;;;;27.60;19.73;;;3.60;99.90;;;;;;5066978;28;20385;-53
2022/01/08 12:18:11;;;;;;;26.02;20.05;;;3.60;99.90;;;;;;5056485;28;20036;-54
2022/01/08 12:20:54;;;;;;;25.92;20.27;;;3.60;99.90;;;;;;5071360;28;20502;-54
2022/01/08 12:23:23;;;;;;;28.30;20.75;;;3.70;99.90;;;;;;5070117;28;20045;-54
2022/01/08 12:25:49;;;;;;;30.55;23.10;;;3.70;99.90;;;;;;5071942;28;20167;-54
2022/01/08 12:28:46;;;;;;;32.40;24.05;;;3.70;99.90;;;;;;5057187;28;20130;-52
2022/01/08 12:31:41;;;;;;;34.83;24.13;;;3.70;99.90;;;;;;5057617;28;20464;-48
2022/01/08 12:34:30;;;;;;;33.30;26.13;;;3.90;99.90;;;;;;5073576;28;20064;-50
2022/01/08 12:36:58;;;;;;;33.15;24.58;;;3.70;99.90;;;;;;5054736;28;20502;-51
2022/01/08 12:39:43;;;;;;;30.92;24.15;;;3.70;99.90;;;;;;5058555;28;20045;-49
2022/01/08 12:42:24;;;;;;;36.30;25.80;;;3.70;99.90;;;;;;5068470;28;20508;-48
2022/01/08 12:44:57;;;;;;;31.85;23.77;;;3.70;99.90;;;;;;5066994;28;20060;-50
2022/01/08 12:47:38;;;;;;;30.10;23.38;;;3.70;99.90;;;;;;5062733;28;20191;-50
2022/01/08 12:50:23;;;;;;;35.92;26.25;;;3.70;99.90;;;;;;5053754;28;20041;-47
2022/01/08 12:53:07;;;;;;;32.40;24.30;;;3.70;99.90;;;;;;5057348;28;20053;-47
2022/01/08 12:55:43;;;;;;;28.05;21.50;;;3.70;99.90;;;;;;5054852;28;20127;-46
2022/01/08 12:58:19;;;;;;;34.28;22.83;;;3.70;99.90;;;;;;5068331;28;20051;-46
2022/01/08 13:00:52;;;;;;;29.17;22.00;;;3.70;99.90;;;;;;5053848;28;20049;-46
2022/01/08 13:03:21;;;;;;;34.63;22.25;;;3.70;99.90;;;;;;5071012;28;20060;-47
2022/01/08 13:05:47;;;;;;;30.05;22.25;;;3.70;99.90;;;;;;5073798;28;20166;-45
2022/01/08 13:08:24;;;;;;;31.15;22.05;;;3.70;99.90;;;;;;5056801;28;20137;-46